sensor_id;sensor_type;location;lat;lon;timestamp;temperature;humidity
57753;DHT22;43583;53.132;6.574;2022-11-25T00:01:19;7.40;99.90
57753;DHT22;43583;53.132;6.574;2022-11-25T00:03:46;7.40;99.90
57753;DHT22;43583;53.132;6.574;2022-11-25T00:06:14;7.40;99.90
57753;DHT22;43583;53.132;6.574;2022-11-25T00:08:41;7.40;99.90
57753;DHT22;43583;53.132;6.574;2022-11-25T00:11:08;7.40;99.90
57753;DHT22;43583;53.132;6.574;2022-11-25T00:13:34;7.40;99.90
57753;DHT22;43583;53.132;6.574;2022-11-25T00:16:05;7.40;99.90
57753;DHT22;43583;53.132;6.574;2022-11-25T00:18:31;7.40;99.90
57753;DHT22;43583;53.132;6.574;2022-11-25T00:20:57;7.50;99.90
57753;DHT22;43583;53.132;6.574;2022-11-25T00:23:23;7.50;99.90
57753;DHT22;43583;53.132;6.574;2022-11-25T00:25:49;7.50;99.90
57753;DHT22;43583;53.132;6.574;2022-11-25T00:28:14;7.50;99.90
57753;DHT22;43583;53.132;6.574;2022-11-25T00:30:41;7.50;99.90
57753;DHT22;43583;53.132;6.574;2022-11-25T00:33:07;7.50;99.90
57753;DHT22;43583;53.132;6.574;2022-11-25T00:35:34;7.50;99.90
57753;DHT22;43583;53.132;6.574;2022-11-25T00:38:00;7.50;99.90
57753;DHT22;43583;53.132;6.574;2022-11-25T00:40:25;7.60;99.90
57753;DHT22;43583;53.132;6.574;2022-11-25T00:42:51;7.50;99.90
57753;DHT22;43583;53.132;6.574;2022-11-25T00:45:35;7.50;99.90
57753;DHT22;43583;53.132;6.574;2022-11-25T00:48:01;7.50;99.90
57753;DHT22;43583;53.132;6.574;2022-11-25T00:50:26;7.50;99.90
57753;DHT22;43583;53.132;6.574;2022-11-25T00:52:52;7.50;99.90
57753;DHT22;43583;53.132;6.574;2022-11-25T00:55:17;7.50;99.90
57753;DHT22;43583;53.132;6.574;2022-11-25T00:57:43;7.50;99.90
57753;DHT22;43583;53.132;6.574;2022-11-25T01:00:10;7.50;99.90
57753;DHT22;43583;53.132;6.574;2022-11-25T01:02:36;7.50;99.90
57753;DHT22;43583;53.132;6.574;2022-11-25T01:05:02;7.50;99.90
57753;DHT22;43583;53.132;6.574;2022-11-25T01:07:27;7.50;99.90
57753;DHT22;43583;53.132;6.574;2022-11-25T01:09:53;7.40;99.90
57753;DHT22;43583;53.132;6.574;2022-11-25T01:12:18;7.50;99.90
57753;DHT22;43583;53.132;6.574;2022-11-25T01:14:44;7.50;99.90
57753;DHT22;43583;53.132;6.574;2022-11-25T01:17:09;7.50;99.90
57753;DHT22;43583;53.132;6.574;2022-11-25T01:19:35;7.50;99.90
57753;DHT22;43583;53.132;6.574;2022-11-25T01:22:05;7.50;99.90
57753;DHT22;43583;53.132;6.574;2022-11-25T01:24:31;7.50;99.90
57753;DHT22;43583;53.132;6.574;2022-11-25T01:26:57;7.50;99.90
57753;DHT22;43583;53.132;6.574;2022-11-25T01:29:23;7.50;99.90
57753;DHT22;43583;53.132;6.574;2022-11-25T01:31:48;7.50;99.90
57753;DHT22;43583;53.132;6.574;2022-11-25T01:34:19;7.50;99.90
57753;DHT22;43583;53.132;6.574;2022-11-25T01:36:46;7.50;99.90
57753;DHT22;43583;53.132;6.574;2022-11-25T01:39:20;7.50;99.90
57753;DHT22;43583;53.132;6.574;2022-11-25T01:41:46;7.40;99.90
57753;DHT22;43583;53.132;6.574;2022-11-25T01:44:18;7.40;99.90
57753;DHT22;43583;53.132;6.574;2022-11-25T01:49:25;7.40;99.90
57753;DHT22;43583;53.132;6.574;2022-11-25T01:51:57;7.30;99.90
57753;DHT22;43583;53.132;6.574;2022-11-25T01:54:27;7.40;99.90
57753;DHT22;43583;53.132;6.574;2022-11-25T01:57:00;7.40;99.90
57753;DHT22;43583;53.132;6.574;2022-11-25T01:59:27;7.40;99.90
57753;DHT22;43583;53.132;6.574;2022-11-25T02:01:53;7.50;99.90
57753;DHT22;43583;53.132;6.574;2022-11-25T02:04:21;7.50;99.90
57753;DHT22;43583;53.132;6.574;2022-11-25T02:06:56;7.50;99.90
57753;DHT22;43583;53.132;6.574;2022-11-25T02:09:24;7.60;99.90
57753;DHT22;43583;53.132;6.574;2022-11-25T02:11:51;7.60;99.90
57753;DHT22;43583;53.132;6.574;2022-11-25T02:14:17;7.60;99.90
57753;DHT22;43583;53.132;6.574;2022-11-25T02:16:44;7.60;99.90
57753;DHT22;43583;53.132;6.574;2022-11-25T02:19:21;7.60;99.90
57753;DHT22;43583;53.132;6.574;2022-11-25T02:21:55;7.60;99.90
57753;DHT22;43583;53.132;6.574;2022-11-25T02:24:37;7.60;99.90
57753;DHT22;43583;53.132;6.574;2022-11-25T02:27:04;7.60;99.90
57753;DHT22;43583;53.132;6.574;2022-11-25T02:29:29;7.60;99.90
57753;DHT22;43583;53.132;6.574;2022-11-25T02:31:56;7.60;99.90
57753;DHT22;43583;53.132;6.574;2022-11-25T02:34:22;7.60;99.90
57753;DHT22;43583;53.132;6.574;2022-11-25T02:36:48;7.60;99.90
57753;DHT22;43583;53.132;6.574;2022-11-25T02:39:14;7.60;99.90
57753;DHT22;43583;53.132;6.574;2022-11-25T02:41:43;7.60;99.90
57753;DHT22;43583;53.132;6.574;2022-11-25T02:44:11;7.70;99.90
57753;DHT22;43583;53.132;6.574;2022-11-25T02:46:36;7.60;99.90
57753;DHT22;43583;53.132;6.574;2022-11-25T02:49:03;7.70;99.90
57753;DHT22;43583;53.132;6.574;2022-11-25T02:51:30;7.60;99.90
57753;DHT22;43583;53.132;6.574;2022-11-25T02:53:56;7.60;99.90
57753;DHT22;43583;53.132;6.574;2022-11-25T02:56:24;7.60;99.90
57753;DHT22;43583;53.132;6.574;2022-11-25T02:58:50;7.60;99.90
57753;DHT22;43583;53.132;6.574;2022-11-25T03:01:16;7.60;99.90
57753;DHT22;43583;53.132;6.574;2022-11-25T03:03:42;7.60;99.90
57753;DHT22;43583;53.132;6.574;2022-11-25T03:06:08;7.60;99.90
57753;DHT22;43583;53.132;6.574;2022-11-25T03:08:34;7.70;99.90
57753;DHT22;43583;53.132;6.574;2022-11-25T03:11:00;7.70;99.90
57753;DHT22;43583;53.132;6.574;2022-11-25T03:13:25;7.70;99.90
57753;DHT22;43583;53.132;6.574;2022-11-25T03:15:51;7.70;99.90
57753;DHT22;43583;53.132;6.574;2022-11-25T03:18:16;7.80;99.90
57753;DHT22;43583;53.132;6.574;2022-11-25T03:20:42;7.80;99.90
57753;DHT22;43583;53.132;6.574;2022-11-25T03:23:07;7.80;99.90
57753;DHT22;43583;53.132;6.574;2022-11-25T03:25:34;7.80;99.90
57753;DHT22;43583;53.132;6.574;2022-11-25T03:28:00;7.80;99.90
57753;DHT22;43583;53.132;6.574;2022-11-25T03:30:27;7.80;99.90
57753;DHT22;43583;53.132;6.574;2022-11-25T03:32:53;7.80;99.90
57753;DHT22;43583;53.132;6.574;2022-11-25T03:35:19;7.80;99.90
57753;DHT22;43583;53.132;6.574;2022-11-25T03:37:44;7.80;99.90
57753;DHT22;43583;53.132;6.574;2022-11-25T03:40:11;7.80;99.90
57753;DHT22;43583;53.132;6.574;2022-11-25T03:42:37;7.90;99.90
57753;DHT22;43583;53.132;6.574;2022-11-25T03:45:03;7.90;99.90
57753;DHT22;43583;53.132;6.574;2022-11-25T03:47:30;7.90;99.90
57753;DHT22;43583;53.132;6.574;2022-11-25T03:49:55;7.90;99.90
57753;DHT22;43583;53.132;6.574;2022-11-25T03:52:21;7.90;99.90
57753;DHT22;43583;53.132;6.574;2022-11-25T03:54:46;7.90;99.90
57753;DHT22;43583;53.132;6.574;2022-11-25T03:57:12;7.80;99.90
57753;DHT22;43583;53.132;6.574;2022-11-25T03:59:38;7.80;99.90
57753;DHT22;43583;53.132;6.574;2022-11-25T04:02:03;7.80;99.90
57753;DHT22;43583;53.132;6.574;2022-11-25T04:04:29;7.90;99.90
57753;DHT22;43583;53.132;6.574;2022-11-25T04:06:55;7.90;99.90
57753;DHT22;43583;53.132;6.574;2022-11-25T04:09:20;7.90;99.90
57753;DHT22;43583;53.132;6.574;2022-11-25T04:11:46;7.90;99.90
57753;DHT22;43583;53.132;6.574;2022-11-25T04:14:30;7.90;99.90
57753;DHT22;43583;53.132;6.574;2022-11-25T04:16:55;7.90;99.90
57753;DHT22;43583;53.132;6.574;2022-11-25T04:19:21;7.90;99.90
57753;DHT22;43583;53.132;6.574;2022-11-25T04:21:47;7.90;99.90
57753;DHT22;43583;53.132;6.574;2022-11-25T04:24:13;7.90;99.90
57753;DHT22;43583;53.132;6.574;2022-11-25T04:26:39;7.90;99.90
57753;DHT22;43583;53.132;6.574;2022-11-25T04:29:05;7.90;99.90
57753;DHT22;43583;53.132;6.574;2022-11-25T04:31:31;7.90;99.90
57753;DHT22;43583;53.132;6.574;2022-11-25T04:33:56;7.90;99.90
57753;DHT22;43583;53.132;6.574;2022-11-25T04:36:22;7.90;99.90
57753;DHT22;43583;53.132;6.574;2022-11-25T04:38:47;7.90;99.90
57753;DHT22;43583;53.132;6.574;2022-11-25T04:41:13;7.90;99.90
57753;DHT22;43583;53.132;6.574;2022-11-25T04:43:38;7.90;99.90
57753;DHT22;43583;53.132;6.574;2022-11-25T04:46:04;7.90;99.90
57753;DHT22;43583;53.132;6.574;2022-11-25T04:48:30;7.90;99.90
57753;DHT22;43583;53.132;6.574;2022-11-25T04:50:56;7.90;99.90
57753;DHT22;43583;53.132;6.574;2022-11-25T04:53:21;7.90;99.90
57753;DHT22;43583;53.132;6.574;2022-11-25T04:55:47;7.90;99.90
57753;DHT22;43583;53.132;6.574;2022-11-25T04:58:13;7.90;99.90
57753;DHT22;43583;53.132;6.574;2022-11-25T05:00:38;7.90;99.90
57753;DHT22;43583;53.132;6.574;2022-11-25T05:03:04;7.90;99.90
57753;DHT22;43583;53.132;6.574;2022-11-25T05:05:30;7.90;99.90
57753;DHT22;43583;53.132;6.574;2022-11-25T05:07:56;8.00;99.90
57753;DHT22;43583;53.132;6.574;2022-11-25T05:10:22;7.90;99.90
57753;DHT22;43583;53.132;6.574;2022-11-25T05:12:48;7.90;99.90
57753;DHT22;43583;53.132;6.574;2022-11-25T05:15:13;7.90;99.90
57753;DHT22;43583;53.132;6.574;2022-11-25T05:17:39;7.90;99.90
57753;DHT22;43583;53.132;6.574;2022-11-25T05:20:06;7.90;99.90
57753;DHT22;43583;53.132;6.574;2022-11-25T05:22:32;7.90;99.90
57753;DHT22;43583;53.132;6.574;2022-11-25T05:24:58;7.90;99.90
57753;DHT22;43583;53.132;6.574;2022-11-25T05:27:25;7.90;99.90
57753;DHT22;43583;53.132;6.574;2022-11-25T05:29:50;7.90;99.90
57753;DHT22;43583;53.132;6.574;2022-11-25T05:32:16;7.90;99.90
57753;DHT22;43583;53.132;6.574;2022-11-25T05:34:42;7.90;99.90
57753;DHT22;43583;53.132;6.574;2022-11-25T05:37:09;7.90;99.90
57753;DHT22;43583;53.132;6.574;2022-11-25T05:39:35;7.90;99.90
57753;DHT22;43583;53.132;6.574;2022-11-25T05:42:00;7.90;99.90
57753;DHT22;43583;53.132;6.574;2022-11-25T05:44:26;7.90;99.90
57753;DHT22;43583;53.132;6.574;2022-11-25T05:46:52;7.90;99.90
57753;DHT22;43583;53.132;6.574;2022-11-25T05:49:18;8.00;99.90
57753;DHT22;43583;53.132;6.574;2022-11-25T05:51:45;8.00;99.90
57753;DHT22;43583;53.132;6.574;2022-11-25T05:54:11;8.00;99.90
57753;DHT22;43583;53.132;6.574;2022-11-25T05:56:37;7.90;99.90
57753;DHT22;43583;53.132;6.574;2022-11-25T05:59:04;8.00;99.90
57753;DHT22;43583;53.132;6.574;2022-11-25T06:01:31;8.00;99.90
57753;DHT22;43583;53.132;6.574;2022-11-25T06:04:01;8.00;99.90
57753;DHT22;43583;53.132;6.574;2022-11-25T06:06:27;8.00;99.90
57753;DHT22;43583;53.132;6.574;2022-11-25T06:08:53;8.00;99.90
57753;DHT22;43583;53.132;6.574;2022-11-25T06:11:18;8.00;99.90
57753;DHT22;43583;53.132;6.574;2022-11-25T06:13:44;8.00;99.90
57753;DHT22;43583;53.132;6.574;2022-11-25T06:16:12;8.10;99.90
57753;DHT22;43583;53.132;6.574;2022-11-25T06:18:38;8.10;99.90
57753;DHT22;43583;53.132;6.574;2022-11-25T06:21:05;8.00;99.90
57753;DHT22;43583;53.132;6.574;2022-11-25T06:23:31;8.10;99.90
57753;DHT22;43583;53.132;6.574;2022-11-25T06:26:05;8.10;99.90
57753;DHT22;43583;53.132;6.574;2022-11-25T06:28:31;8.10;99.90
57753;DHT22;43583;53.132;6.574;2022-11-25T06:31:07;8.10;99.90
57753;DHT22;43583;53.132;6.574;2022-11-25T06:33:33;8.10;99.90
57753;DHT22;43583;53.132;6.574;2022-11-25T06:36:01;8.10;99.90
57753;DHT22;43583;53.132;6.574;2022-11-25T06:38:27;8.10;99.90
57753;DHT22;43583;53.132;6.574;2022-11-25T06:40:52;8.10;99.90
57753;DHT22;43583;53.132;6.574;2022-11-25T06:43:18;8.10;99.90
57753;DHT22;43583;53.132;6.574;2022-11-25T06:45:43;8.20;99.90
57753;DHT22;43583;53.132;6.574;2022-11-25T06:48:09;8.20;99.90
57753;DHT22;43583;53.132;6.574;2022-11-25T06:50:34;8.20;99.90
57753;DHT22;43583;53.132;6.574;2022-11-25T06:53:01;8.20;99.90
57753;DHT22;43583;53.132;6.574;2022-11-25T06:55:26;8.20;99.90
57753;DHT22;43583;53.132;6.574;2022-11-25T06:57:52;8.10;99.90
57753;DHT22;43583;53.132;6.574;2022-11-25T07:00:17;8.10;99.90
57753;DHT22;43583;53.132;6.574;2022-11-25T07:02:43;8.10;99.90
57753;DHT22;43583;53.132;6.574;2022-11-25T07:05:09;8.10;99.90
57753;DHT22;43583;53.132;6.574;2022-11-25T07:07:35;8.10;99.90
57753;DHT22;43583;53.132;6.574;2022-11-25T07:10:00;8.10;99.90
57753;DHT22;43583;53.132;6.574;2022-11-25T07:12:26;8.10;99.90
57753;DHT22;43583;53.132;6.574;2022-11-25T07:14:51;8.10;99.90
57753;DHT22;43583;53.132;6.574;2022-11-25T07:17:17;8.10;99.90
57753;DHT22;43583;53.132;6.574;2022-11-25T07:19:42;8.10;99.90
57753;DHT22;43583;53.132;6.574;2022-11-25T07:22:09;8.10;99.90
57753;DHT22;43583;53.132;6.574;2022-11-25T07:24:35;8.10;99.90
57753;DHT22;43583;53.132;6.574;2022-11-25T07:27:00;8.10;99.90
57753;DHT22;43583;53.132;6.574;2022-11-25T07:29:27;8.10;99.90
57753;DHT22;43583;53.132;6.574;2022-11-25T07:31:54;8.10;99.90
57753;DHT22;43583;53.132;6.574;2022-11-25T07:34:20;8.10;99.90
57753;DHT22;43583;53.132;6.574;2022-11-25T07:36:47;8.10;99.90
57753;DHT22;43583;53.132;6.574;2022-11-25T07:39:16;8.10;99.90
57753;DHT22;43583;53.132;6.574;2022-11-25T07:41:43;8.10;99.90
57753;DHT22;43583;53.132;6.574;2022-11-25T07:44:12;8.10;99.90
57753;DHT22;43583;53.132;6.574;2022-11-25T07:46:41;8.00;99.90
57753;DHT22;43583;53.132;6.574;2022-11-25T07:49:10;8.00;99.90
57753;DHT22;43583;53.132;6.574;2022-11-25T07:51:42;7.90;99.90
57753;DHT22;43583;53.132;6.574;2022-11-25T07:54:10;7.90;99.90
57753;DHT22;43583;53.132;6.574;2022-11-25T07:56:38;7.90;99.90
57753;DHT22;43583;53.132;6.574;2022-11-25T07:59:07;7.90;99.90
57753;DHT22;43583;53.132;6.574;2022-11-25T08:01:34;7.90;99.90
57753;DHT22;43583;53.132;6.574;2022-11-25T08:03:59;7.90;99.90
57753;DHT22;43583;53.132;6.574;2022-11-25T08:06:28;8.00;99.90
57753;DHT22;43583;53.132;6.574;2022-11-25T08:08:55;8.00;99.90
57753;DHT22;43583;53.132;6.574;2022-11-25T08:11:29;8.10;99.90
57753;DHT22;43583;53.132;6.574;2022-11-25T08:13:55;8.10;99.90
57753;DHT22;43583;53.132;6.574;2022-11-25T08:16:26;8.10;99.90
57753;DHT22;43583;53.132;6.574;2022-11-25T08:18:53;8.10;99.90
57753;DHT22;43583;53.132;6.574;2022-11-25T08:21:19;8.10;99.90
57753;DHT22;43583;53.132;6.574;2022-11-25T08:23:45;8.10;99.90
57753;DHT22;43583;53.132;6.574;2022-11-25T08:26:23;8.10;99.90
57753;DHT22;43583;53.132;6.574;2022-11-25T08:28:55;8.10;99.90
57753;DHT22;43583;53.132;6.574;2022-11-25T08:31:24;8.10;99.90
57753;DHT22;43583;53.132;6.574;2022-11-25T08:33:50;8.10;99.90
57753;DHT22;43583;53.132;6.574;2022-11-25T08:36:16;8.10;99.90
57753;DHT22;43583;53.132;6.574;2022-11-25T08:38:43;8.10;99.90
57753;DHT22;43583;53.132;6.574;2022-11-25T08:41:15;8.20;99.90
57753;DHT22;43583;53.132;6.574;2022-11-25T08:43:41;8.20;99.90
57753;DHT22;43583;53.132;6.574;2022-11-25T08:46:13;8.20;99.90
57753;DHT22;43583;53.132;6.574;2022-11-25T08:48:40;8.20;99.90
57753;DHT22;43583;53.132;6.574;2022-11-25T08:51:09;8.30;99.90
57753;DHT22;43583;53.132;6.574;2022-11-25T08:53:36;8.30;99.90
57753;DHT22;43583;53.132;6.574;2022-11-25T08:56:03;8.30;99.90
57753;DHT22;43583;53.132;6.574;2022-11-25T08:58:28;8.40;99.90
57753;DHT22;43583;53.132;6.574;2022-11-25T09:00:54;8.50;99.90
57753;DHT22;43583;53.132;6.574;2022-11-25T09:03:19;8.70;99.90
57753;DHT22;43583;53.132;6.574;2022-11-25T09:05:52;8.70;99.90
57753;DHT22;43583;53.132;6.574;2022-11-25T09:08:17;8.80;99.90
57753;DHT22;43583;53.132;6.574;2022-11-25T09:10:43;9.10;99.90
57753;DHT22;43583;53.132;6.574;2022-11-25T09:13:09;9.50;99.90
57753;DHT22;43583;53.132;6.574;2022-11-25T09:15:36;9.80;99.90
57753;DHT22;43583;53.132;6.574;2022-11-25T09:18:05;9.90;99.90
57753;DHT22;43583;53.132;6.574;2022-11-25T09:20:31;9.90;99.90
57753;DHT22;43583;53.132;6.574;2022-11-25T09:23:01;9.80;99.90
57753;DHT22;43583;53.132;6.574;2022-11-25T09:25:28;9.80;99.90
57753;DHT22;43583;53.132;6.574;2022-11-25T09:27:57;9.90;99.90
57753;DHT22;43583;53.132;6.574;2022-11-25T09:30:23;9.80;99.90
57753;DHT22;43583;53.132;6.574;2022-11-25T09:32:51;9.80;99.90
57753;DHT22;43583;53.132;6.574;2022-11-25T09:35:18;9.80;99.90
57753;DHT22;43583;53.132;6.574;2022-11-25T09:37:44;9.70;99.90
57753;DHT22;43583;53.132;6.574;2022-11-25T09:40:42;9.70;99.90
57753;DHT22;43583;53.132;6.574;2022-11-25T09:43:28;9.70;99.90
57753;DHT22;43583;53.132;6.574;2022-11-25T09:46:37;9.70;99.90
57753;DHT22;43583;53.132;6.574;2022-11-25T09:54:20;9.60;99.90
57753;DHT22;43583;53.132;6.574;2022-11-25T09:57:17;9.70;99.90
57753;DHT22;43583;53.132;6.574;2022-11-25T10:00:08;9.70;99.90
57753;DHT22;43583;53.132;6.574;2022-11-25T10:02:54;9.70;99.90
57753;DHT22;43583;53.132;6.574;2022-11-25T10:05:31;9.70;99.90
57753;DHT22;43583;53.132;6.574;2022-11-25T10:08:20;9.70;99.90
57753;DHT22;43583;53.132;6.574;2022-11-25T10:10:52;9.80;99.90
57753;DHT22;43583;53.132;6.574;2022-11-25T10:13:47;9.80;99.90
57753;DHT22;43583;53.132;6.574;2022-11-25T10:16:47;9.80;99.90
57753;DHT22;43583;53.132;6.574;2022-11-25T10:19:22;9.80;99.90
57753;DHT22;43583;53.132;6.574;2022-11-25T10:21:49;9.90;99.90
57753;DHT22;43583;53.132;6.574;2022-11-25T10:24:16;9.90;99.90
57753;DHT22;43583;53.132;6.574;2022-11-25T10:26:50;9.90;99.90
57753;DHT22;43583;53.132;6.574;2022-11-25T10:31:43;10.00;99.90
57753;DHT22;43583;53.132;6.574;2022-11-25T10:34:26;10.10;99.90
57753;DHT22;43583;53.132;6.574;2022-11-25T10:36:55;10.10;99.90
57753;DHT22;43583;53.132;6.574;2022-11-25T10:39:25;10.20;99.90
57753;DHT22;43583;53.132;6.574;2022-11-25T10:42:17;10.30;99.90
57753;DHT22;43583;53.132;6.574;2022-11-25T10:44:44;10.40;99.90
57753;DHT22;43583;53.132;6.574;2022-11-25T10:55:24;10.70;99.90
57753;DHT22;43583;53.132;6.574;2022-11-25T10:57:51;10.90;99.90
57753;DHT22;43583;53.132;6.574;2022-11-25T11:02:49;11.00;99.90
57753;DHT22;43583;53.132;6.574;2022-11-25T11:05:16;11.00;99.90
57753;DHT22;43583;53.132;6.574;2022-11-25T11:07:45;11.10;99.90
57753;DHT22;43583;53.132;6.574;2022-11-25T11:12:59;11.40;99.90
57753;DHT22;43583;53.132;6.574;2022-11-25T11:15:27;11.50;99.90
57753;DHT22;43583;53.132;6.574;2022-11-25T11:17:54;11.50;99.90
57753;DHT22;43583;53.132;6.574;2022-11-25T11:20:25;11.50;99.90
57753;DHT22;43583;53.132;6.574;2022-11-25T11:23:07;11.50;99.90
57753;DHT22;43583;53.132;6.574;2022-11-25T11:25:35;11.50;99.90
57753;DHT22;43583;53.132;6.574;2022-11-25T11:28:02;11.50;99.90
57753;DHT22;43583;53.132;6.574;2022-11-25T11:31:21;11.40;99.90
57753;DHT22;43583;53.132;6.574;2022-11-25T11:37:35;11.20;99.90
57753;DHT22;43583;53.132;6.574;2022-11-25T11:48:47;11.10;99.90
57753;DHT22;43583;53.132;6.574;2022-11-25T11:50:40;11.00;99.90
57753;DHT22;43583;53.132;6.574;2022-11-25T11:56:01;11.00;99.90
57753;DHT22;43583;53.132;6.574;2022-11-25T12:01:18;11.40;99.90
57753;DHT22;43583;53.132;6.574;2022-11-25T12:04:25;11.60;99.90
57753;DHT22;43583;53.132;6.574;2022-11-25T12:07:17;11.60;99.90
57753;DHT22;43583;53.132;6.574;2022-11-25T12:10:00;11.60;99.90
57753;DHT22;43583;53.132;6.574;2022-11-25T12:12:47;11.60;99.90
57753;DHT22;43583;53.132;6.574;2022-11-25T12:18:11;11.60;99.90
57753;DHT22;43583;53.132;6.574;2022-11-25T12:21:12;11.50;99.90
57753;DHT22;43583;53.132;6.574;2022-11-25T12:29:43;11.40;99.90
57753;DHT22;43583;53.132;6.574;2022-11-25T12:32:33;11.30;99.90
57753;DHT22;43583;53.132;6.574;2022-11-25T12:35:32;11.30;99.90
57753;DHT22;43583;53.132;6.574;2022-11-25T12:40:34;11.30;99.90
57753;DHT22;43583;53.132;6.574;2022-11-25T12:43:10;11.30;99.90
57753;DHT22;43583;53.132;6.574;2022-11-25T12:45:37;11.30;99.90
57753;DHT22;43583;53.132;6.574;2022-11-25T12:48:04;11.40;99.90
57753;DHT22;43583;53.132;6.574;2022-11-25T12:51:06;11.40;99.90
57753;DHT22;43583;53.132;6.574;2022-11-25T12:56:46;11.30;99.90
57753;DHT22;43583;53.132;6.574;2022-11-25T13:02:28;11.10;99.90
57753;DHT22;43583;53.132;6.574;2022-11-25T13:08:14;11.10;99.90
57753;DHT22;43583;53.132;6.574;2022-11-25T13:11:05;11.00;99.90
57753;DHT22;43583;53.132;6.574;2022-11-25T13:13:49;11.00;99.90
57753;DHT22;43583;53.132;6.574;2022-11-25T13:16:18;11.00;99.90
57753;DHT22;43583;53.132;6.574;2022-11-25T13:18:44;11.00;99.90
57753;DHT22;43583;53.132;6.574;2022-11-25T13:21:12;10.90;99.90
57753;DHT22;43583;53.132;6.574;2022-11-25T13:29:00;11.00;99.90
57753;DHT22;43583;53.132;6.574;2022-11-25T13:31:31;11.00;99.90
57753;DHT22;43583;53.132;6.574;2022-11-25T13:36:24;11.00;99.90
57753;DHT22;43583;53.132;6.574;2022-11-25T13:43:54;10.90;99.90
57753;DHT22;43583;53.132;6.574;2022-11-25T13:49:00;10.90;99.90
57753;DHT22;43583;53.132;6.574;2022-11-25T13:51:25;11.00;99.90
57753;DHT22;43583;53.132;6.574;2022-11-25T13:54:00;11.00;99.90
57753;DHT22;43583;53.132;6.574;2022-11-25T13:56:32;11.20;99.90
57753;DHT22;43583;53.132;6.574;2022-11-25T14:04:07;11.20;99.90
57753;DHT22;43583;53.132;6.574;2022-11-25T14:06:54;11.20;99.90
57753;DHT22;43583;53.132;6.574;2022-11-25T14:12:26;11.30;99.90
57753;DHT22;43583;53.132;6.574;2022-11-25T14:15:00;11.30;99.90
57753;DHT22;43583;53.132;6.574;2022-11-25T14:25:52;11.20;99.90
57753;DHT22;43583;53.132;6.574;2022-11-25T14:28:28;11.10;99.90
57753;DHT22;43583;53.132;6.574;2022-11-25T14:30:59;11.10;99.90
57753;DHT22;43583;53.132;6.574;2022-11-25T14:33:35;11.00;99.90
57753;DHT22;43583;53.132;6.574;2022-11-25T14:36:08;11.10;99.90
57753;DHT22;43583;53.132;6.574;2022-11-25T14:38:58;11.10;99.90
57753;DHT22;43583;53.132;6.574;2022-11-25T14:41:37;11.00;99.90
57753;DHT22;43583;53.132;6.574;2022-11-25T14:44:11;11.00;99.90
57753;DHT22;43583;53.132;6.574;2022-11-25T14:46:54;10.80;99.90
57753;DHT22;43583;53.132;6.574;2022-11-25T14:49:20;10.70;99.90
57753;DHT22;43583;53.132;6.574;2022-11-25T14:51:48;10.60;99.90
57753;DHT22;43583;53.132;6.574;2022-11-25T14:54:18;10.50;99.90
57753;DHT22;43583;53.132;6.574;2022-11-25T14:56:45;10.40;99.90
57753;DHT22;43583;53.132;6.574;2022-11-25T14:59:11;10.20;99.90
57753;DHT22;43583;53.132;6.574;2022-11-25T15:01:38;10.10;99.90
57753;DHT22;43583;53.132;6.574;2022-11-25T15:06:41;9.90;99.90
57753;DHT22;43583;53.132;6.574;2022-11-25T15:09:19;9.80;99.90
57753;DHT22;43583;53.132;6.574;2022-11-25T15:11:45;9.70;99.90
57753;DHT22;43583;53.132;6.574;2022-11-25T15:17:32;9.50;99.90
57753;DHT22;43583;53.132;6.574;2022-11-25T15:20:05;9.40;99.90
57753;DHT22;43583;53.132;6.574;2022-11-25T15:22:35;9.30;99.90
57753;DHT22;43583;53.132;6.574;2022-11-25T15:25:09;9.20;99.90
57753;DHT22;43583;53.132;6.574;2022-11-25T15:27:47;9.10;99.90
57753;DHT22;43583;53.132;6.574;2022-11-25T15:30:31;9.00;99.90
57753;DHT22;43583;53.132;6.574;2022-11-25T15:32:58;8.90;99.90
57753;DHT22;43583;53.132;6.574;2022-11-25T15:35:26;8.80;99.90
57753;DHT22;43583;53.132;6.574;2022-11-25T15:37:51;8.70;99.90
57753;DHT22;43583;53.132;6.574;2022-11-25T15:40:39;8.60;99.90
57753;DHT22;43583;53.132;6.574;2022-11-25T15:43:22;8.60;99.90
57753;DHT22;43583;53.132;6.574;2022-11-25T15:45:49;8.50;99.90
57753;DHT22;43583;53.132;6.574;2022-11-25T15:48:29;8.40;99.90
57753;DHT22;43583;53.132;6.574;2022-11-25T15:53:59;8.30;99.90
57753;DHT22;43583;53.132;6.574;2022-11-25T15:56:26;8.20;99.90
57753;DHT22;43583;53.132;6.574;2022-11-25T15:58:52;8.10;99.90
57753;DHT22;43583;53.132;6.574;2022-11-25T16:01:21;8.10;99.90
57753;DHT22;43583;53.132;6.574;2022-11-25T16:03:49;8.00;99.90
57753;DHT22;43583;53.132;6.574;2022-11-25T16:06:25;7.90;99.90
57753;DHT22;43583;53.132;6.574;2022-11-25T16:08:56;7.90;99.90
57753;DHT22;43583;53.132;6.574;2022-11-25T16:11:23;7.80;99.90
57753;DHT22;43583;53.132;6.574;2022-11-25T16:13:53;7.80;99.90
57753;DHT22;43583;53.132;6.574;2022-11-25T16:16:26;7.70;99.90
57753;DHT22;43583;53.132;6.574;2022-11-25T16:21:35;7.60;99.90
57753;DHT22;43583;53.132;6.574;2022-11-25T16:24:12;7.60;99.90
57753;DHT22;43583;53.132;6.574;2022-11-25T16:26:55;7.60;99.90
57753;DHT22;43583;53.132;6.574;2022-11-25T16:31:54;7.40;99.90
57753;DHT22;43583;53.132;6.574;2022-11-25T16:34:21;7.40;99.90
57753;DHT22;43583;53.132;6.574;2022-11-25T16:36:49;7.30;99.90
57753;DHT22;43583;53.132;6.574;2022-11-25T16:39:14;7.30;99.90
57753;DHT22;43583;53.132;6.574;2022-11-25T16:41:41;7.20;99.90
57753;DHT22;43583;53.132;6.574;2022-11-25T16:44:18;7.20;99.90
57753;DHT22;43583;53.132;6.574;2022-11-25T16:46:45;7.10;99.90
57753;DHT22;43583;53.132;6.574;2022-11-25T16:49:15;7.10;99.90
57753;DHT22;43583;53.132;6.574;2022-11-25T16:51:41;7.10;99.90
57753;DHT22;43583;53.132;6.574;2022-11-25T16:54:07;7.10;99.90
57753;DHT22;43583;53.132;6.574;2022-11-25T16:56:36;7.10;99.90
57753;DHT22;43583;53.132;6.574;2022-11-25T16:59:02;7.00;99.90
57753;DHT22;43583;53.132;6.574;2022-11-25T17:01:28;7.00;99.90
57753;DHT22;43583;53.132;6.574;2022-11-25T17:03:55;7.00;99.90
57753;DHT22;43583;53.132;6.574;2022-11-25T17:06:27;6.90;99.90
57753;DHT22;43583;53.132;6.574;2022-11-25T17:08:53;6.90;99.90
57753;DHT22;43583;53.132;6.574;2022-11-25T17:11:28;6.80;99.90
57753;DHT22;43583;53.132;6.574;2022-11-25T17:13:56;6.80;99.90
57753;DHT22;43583;53.132;6.574;2022-11-25T17:16:25;6.80;99.90
57753;DHT22;43583;53.132;6.574;2022-11-25T17:18:52;6.80;99.90
57753;DHT22;43583;53.132;6.574;2022-11-25T17:21:18;6.80;99.90
57753;DHT22;43583;53.132;6.574;2022-11-25T17:23:45;6.80;99.90
57753;DHT22;43583;53.132;6.574;2022-11-25T17:26:23;6.70;99.90
57753;DHT22;43583;53.132;6.574;2022-11-25T17:28:53;6.80;99.90
57753;DHT22;43583;53.132;6.574;2022-11-25T17:31:21;6.80;99.90
57753;DHT22;43583;53.132;6.574;2022-11-25T17:33:48;6.80;99.90
57753;DHT22;43583;53.132;6.574;2022-11-25T17:36:14;6.80;99.90
57753;DHT22;43583;53.132;6.574;2022-11-25T17:38:40;6.80;99.90
57753;DHT22;43583;53.132;6.574;2022-11-25T17:41:19;6.70;99.90
57753;DHT22;43583;53.132;6.574;2022-11-25T17:43:48;6.80;99.90
57753;DHT22;43583;53.132;6.574;2022-11-25T17:46:15;6.80;99.90